sensor_id;sensor_type;location;lat;lon;timestamp;temperature;humidity
29403;DHT22;16382;59.942;30.472;2022-10-22T00:01:47;7.50;99.90
29403;DHT22;16382;59.942;30.472;2022-10-22T00:04:15;7.50;99.90
29403;DHT22;16382;59.942;30.472;2022-10-22T00:06:42;7.50;99.90
29403;DHT22;16382;59.942;30.472;2022-10-22T00:09:10;7.50;99.90
29403;DHT22;16382;59.942;30.472;2022-10-22T00:11:37;7.50;99.90
29403;DHT22;16382;59.942;30.472;2022-10-22T00:14:04;7.50;99.90
29403;DHT22;16382;59.942;30.472;2022-10-22T00:16:33;7.60;99.90
29403;DHT22;16382;59.942;30.472;2022-10-22T00:19:00;7.60;99.90
29403;DHT22;16382;59.942;30.472;2022-10-22T00:21:28;7.60;99.90
29403;DHT22;16382;59.942;30.472;2022-10-22T00:23:55;7.70;99.90
29403;DHT22;16382;59.942;30.472;2022-10-22T00:26:22;7.70;99.90
29403;DHT22;16382;59.942;30.472;2022-10-22T00:28:49;7.70;99.90
29403;DHT22;16382;59.942;30.472;2022-10-22T00:31:16;7.60;99.90
29403;DHT22;16382;59.942;30.472;2022-10-22T00:33:46;7.60;99.90
29403;DHT22;16382;59.942;30.472;2022-10-22T00:36:14;7.60;99.90
29403;DHT22;16382;59.942;30.472;2022-10-22T00:38:41;7.60;99.90
29403;DHT22;16382;59.942;30.472;2022-10-22T00:41:08;7.50;99.90
29403;DHT22;16382;59.942;30.472;2022-10-22T00:43:54;7.50;99.90
29403;DHT22;16382;59.942;30.472;2022-10-22T00:46:21;7.40;99.90
29403;DHT22;16382;59.942;30.472;2022-10-22T00:48:50;7.40;99.90
29403;DHT22;16382;59.942;30.472;2022-10-22T00:51:19;7.40;99.90
29403;DHT22;16382;59.942;30.472;2022-10-22T00:53:48;7.40;99.90
29403;DHT22;16382;59.942;30.472;2022-10-22T00:56:18;7.40;99.90
29403;DHT22;16382;59.942;30.472;2022-10-22T00:58:49;7.40;99.90
29403;DHT22;16382;59.942;30.472;2022-10-22T01:01:20;7.50;99.90
29403;DHT22;16382;59.942;30.472;2022-10-22T01:03:51;7.50;99.90
29403;DHT22;16382;59.942;30.472;2022-10-22T01:06:22;7.50;99.90
29403;DHT22;16382;59.942;30.472;2022-10-22T01:08:55;7.50;99.90
29403;DHT22;16382;59.942;30.472;2022-10-22T01:11:33;7.50;99.90
29403;DHT22;16382;59.942;30.472;2022-10-22T01:14:15;7.50;99.90
29403;DHT22;16382;59.942;30.472;2022-10-22T01:16:49;7.50;99.90
29403;DHT22;16382;59.942;30.472;2022-10-22T01:19:42;7.50;99.90
29403;DHT22;16382;59.942;30.472;2022-10-22T01:22:19;7.50;99.90
29403;DHT22;16382;59.942;30.472;2022-10-22T01:24:56;7.50;99.90
29403;DHT22;16382;59.942;30.472;2022-10-22T01:27:43;7.50;99.90
29403;DHT22;16382;59.942;30.472;2022-10-22T01:30:16;7.50;99.90
29403;DHT22;16382;59.942;30.472;2022-10-22T01:32:46;7.60;99.90
29403;DHT22;16382;59.942;30.472;2022-10-22T01:35:18;7.60;99.90
29403;DHT22;16382;59.942;30.472;2022-10-22T01:37:49;7.60;99.90
29403;DHT22;16382;59.942;30.472;2022-10-22T01:40:19;7.60;99.90
29403;DHT22;16382;59.942;30.472;2022-10-22T01:42:57;7.60;99.90
29403;DHT22;16382;59.942;30.472;2022-10-22T01:45:28;7.60;99.90
29403;DHT22;16382;59.942;30.472;2022-10-22T01:48:03;7.60;99.90
29403;DHT22;16382;59.942;30.472;2022-10-22T01:50:46;7.70;99.90
29403;DHT22;16382;59.942;30.472;2022-10-22T01:53:25;7.70;99.90
29403;DHT22;16382;59.942;30.472;2022-10-22T01:56:08;7.70;99.90
29403;DHT22;16382;59.942;30.472;2022-10-22T01:58:55;7.70;99.90
29403;DHT22;16382;59.942;30.472;2022-10-22T02:01:30;7.70;99.90
29403;DHT22;16382;59.942;30.472;2022-10-22T02:04:03;7.70;99.90
29403;DHT22;16382;59.942;30.472;2022-10-22T02:06:33;7.70;99.90
29403;DHT22;16382;59.942;30.472;2022-10-22T02:09:02;7.70;99.90
29403;DHT22;16382;59.942;30.472;2022-10-22T02:11:30;7.70;99.90
29403;DHT22;16382;59.942;30.472;2022-10-22T02:14:00;7.70;99.90
29403;DHT22;16382;59.942;30.472;2022-10-22T02:16:33;7.70;99.90
29403;DHT22;16382;59.942;30.472;2022-10-22T02:19:06;7.70;99.90
29403;DHT22;16382;59.942;30.472;2022-10-22T02:21:35;7.70;99.90
29403;DHT22;16382;59.942;30.472;2022-10-22T02:24:03;7.70;99.90
29403;DHT22;16382;59.942;30.472;2022-10-22T02:26:32;7.70;99.90
29403;DHT22;16382;59.942;30.472;2022-10-22T02:29:05;7.70;99.90
29403;DHT22;16382;59.942;30.472;2022-10-22T02:31:38;7.60;99.90
29403;DHT22;16382;59.942;30.472;2022-10-22T02:34:08;7.70;99.90
29403;DHT22;16382;59.942;30.472;2022-10-22T02:36:39;7.70;99.90
29403;DHT22;16382;59.942;30.472;2022-10-22T02:39:09;7.70;99.90
29403;DHT22;16382;59.942;30.472;2022-10-22T02:41:37;7.70;99.90
29403;DHT22;16382;59.942;30.472;2022-10-22T02:44:08;7.70;99.90
29403;DHT22;16382;59.942;30.472;2022-10-22T02:46:37;7.70;99.90
29403;DHT22;16382;59.942;30.472;2022-10-22T02:49:05;7.70;99.90
29403;DHT22;16382;59.942;30.472;2022-10-22T02:51:33;7.70;99.90
29403;DHT22;16382;59.942;30.472;2022-10-22T02:54:01;7.70;99.90
29403;DHT22;16382;59.942;30.472;2022-10-22T02:56:28;7.70;99.90
29403;DHT22;16382;59.942;30.472;2022-10-22T02:58:55;7.60;99.90
29403;DHT22;16382;59.942;30.472;2022-10-22T03:01:22;7.70;99.90
29403;DHT22;16382;59.942;30.472;2022-10-22T03:03:51;7.70;99.90
29403;DHT22;16382;59.942;30.472;2022-10-22T03:06:18;7.70;99.90
29403;DHT22;16382;59.942;30.472;2022-10-22T03:08:45;7.70;99.90
29403;DHT22;16382;59.942;30.472;2022-10-22T03:11:12;7.80;99.90
29403;DHT22;16382;59.942;30.472;2022-10-22T03:13:39;7.80;99.90
29403;DHT22;16382;59.942;30.472;2022-10-22T03:16:07;7.80;99.90
29403;DHT22;16382;59.942;30.472;2022-10-22T03:18:34;7.80;99.90
29403;DHT22;16382;59.942;30.472;2022-10-22T03:21:07;7.70;99.90
29403;DHT22;16382;59.942;30.472;2022-10-22T03:23:36;7.70;99.90
29403;DHT22;16382;59.942;30.472;2022-10-22T03:26:04;7.70;99.90
29403;DHT22;16382;59.942;30.472;2022-10-22T03:28:32;7.70;99.90
29403;DHT22;16382;59.942;30.472;2022-10-22T03:31:00;7.70;99.90
29403;DHT22;16382;59.942;30.472;2022-10-22T03:33:27;7.70;99.90
29403;DHT22;16382;59.942;30.472;2022-10-22T03:35:54;7.70;99.90
29403;DHT22;16382;59.942;30.472;2022-10-22T03:38:23;7.70;99.90
29403;DHT22;16382;59.942;30.472;2022-10-22T03:40:50;7.70;99.90
29403;DHT22;16382;59.942;30.472;2022-10-22T03:43:17;7.70;99.90
29403;DHT22;16382;59.942;30.472;2022-10-22T03:45:45;7.70;99.90
29403;DHT22;16382;59.942;30.472;2022-10-22T03:48:12;7.70;99.90
29403;DHT22;16382;59.942;30.472;2022-10-22T03:50:39;7.70;99.90
29403;DHT22;16382;59.942;30.472;2022-10-22T03:53:06;7.70;99.90
29403;DHT22;16382;59.942;30.472;2022-10-22T03:55:36;7.70;99.90
29403;DHT22;16382;59.942;30.472;2022-10-22T03:58:04;7.70;99.90
29403;DHT22;16382;59.942;30.472;2022-10-22T04:00:31;7.70;99.90
29403;DHT22;16382;59.942;30.472;2022-10-22T04:02:58;7.70;99.90
29403;DHT22;16382;59.942;30.472;2022-10-22T04:05:25;7.70;99.90
29403;DHT22;16382;59.942;30.472;2022-10-22T04:07:52;7.70;99.90
29403;DHT22;16382;59.942;30.472;2022-10-22T04:10:20;7.60;99.90
29403;DHT22;16382;59.942;30.472;2022-10-22T04:12:48;7.50;99.90
29403;DHT22;16382;59.942;30.472;2022-10-22T04:15:15;7.50;99.90
29403;DHT22;16382;59.942;30.472;2022-10-22T04:17:42;7.50;99.90
29403;DHT22;16382;59.942;30.472;2022-10-22T04:20:10;7.50;99.90
29403;DHT22;16382;59.942;30.472;2022-10-22T04:22:37;7.50;99.90
29403;DHT22;16382;59.942;30.472;2022-10-22T04:25:05;7.50;99.90
29403;DHT22;16382;59.942;30.472;2022-10-22T04:27:32;7.40;99.90
29403;DHT22;16382;59.942;30.472;2022-10-22T04:30:02;7.50;99.90
29403;DHT22;16382;59.942;30.472;2022-10-22T04:32:29;7.40;99.90
29403;DHT22;16382;59.942;30.472;2022-10-22T04:34:58;7.50;99.90
29403;DHT22;16382;59.942;30.472;2022-10-22T04:37:26;7.50;99.90
29403;DHT22;16382;59.942;30.472;2022-10-22T04:39:53;7.40;99.90
29403;DHT22;16382;59.942;30.472;2022-10-22T04:42:20;7.50;99.90
29403;DHT22;16382;59.942;30.472;2022-10-22T04:44:47;7.50;99.90
29403;DHT22;16382;59.942;30.472;2022-10-22T04:47:23;7.50;99.90
29403;DHT22;16382;59.942;30.472;2022-10-22T04:49:50;7.50;99.90
29403;DHT22;16382;59.942;30.472;2022-10-22T04:52:17;7.50;99.90
29403;DHT22;16382;59.942;30.472;2022-10-22T04:54:44;7.40;99.90
29403;DHT22;16382;59.942;30.472;2022-10-22T04:57:12;7.50;99.90
29403;DHT22;16382;59.942;30.472;2022-10-22T04:59:39;7.50;99.90
29403;DHT22;16382;59.942;30.472;2022-10-22T05:02:06;7.50;99.90
29403;DHT22;16382;59.942;30.472;2022-10-22T05:04:35;7.50;99.90
29403;DHT22;16382;59.942;30.472;2022-10-22T05:07:02;7.50;99.90
29403;DHT22;16382;59.942;30.472;2022-10-22T05:09:29;7.50;99.90
29403;DHT22;16382;59.942;30.472;2022-10-22T05:11:56;7.50;99.90
29403;DHT22;16382;59.942;30.472;2022-10-22T05:14:24;7.60;99.90
29403;DHT22;16382;59.942;30.472;2022-10-22T05:16:52;7.50;99.90
29403;DHT22;16382;59.942;30.472;2022-10-22T05:19:21;7.50;99.90
29403;DHT22;16382;59.942;30.472;2022-10-22T05:21:51;7.50;99.90
29403;DHT22;16382;59.942;30.472;2022-10-22T05:24:18;7.50;99.90
29403;DHT22;16382;59.942;30.472;2022-10-22T05:26:47;7.50;99.90
29403;DHT22;16382;59.942;30.472;2022-10-22T05:29:14;7.50;99.90
29403;DHT22;16382;59.942;30.472;2022-10-22T05:31:42;7.60;99.90
29403;DHT22;16382;59.942;30.472;2022-10-22T05:34:09;7.60;99.90
29403;DHT22;16382;59.942;30.472;2022-10-22T05:36:36;7.60;99.90
29403;DHT22;16382;59.942;30.472;2022-10-22T05:39:05;7.60;99.90
29403;DHT22;16382;59.942;30.472;2022-10-22T05:41:33;7.50;99.90
29403;DHT22;16382;59.942;30.472;2022-10-22T05:44:02;7.60;99.90
29403;DHT22;16382;59.942;30.472;2022-10-22T05:46:33;7.50;99.90
29403;DHT22;16382;59.942;30.472;2022-10-22T05:49:01;7.50;99.90
29403;DHT22;16382;59.942;30.472;2022-10-22T05:51:30;7.50;99.90
29403;DHT22;16382;59.942;30.472;2022-10-22T05:53:59;7.50;99.90
29403;DHT22;16382;59.942;30.472;2022-10-22T05:56:30;7.50;99.90
29403;DHT22;16382;59.942;30.472;2022-10-22T05:58:57;7.50;99.90
29403;DHT22;16382;59.942;30.472;2022-10-22T06:01:26;7.50;99.90
29403;DHT22;16382;59.942;30.472;2022-10-22T06:03:55;7.50;99.90
29403;DHT22;16382;59.942;30.472;2022-10-22T06:06:26;7.50;99.90
29403;DHT22;16382;59.942;30.472;2022-10-22T06:08:55;7.50;99.90
29403;DHT22;16382;59.942;30.472;2022-10-22T06:11:25;7.60;99.90
29403;DHT22;16382;59.942;30.472;2022-10-22T06:13:54;7.60;99.90
29403;DHT22;16382;59.942;30.472;2022-10-22T06:16:21;7.70;99.90
29403;DHT22;16382;59.942;30.472;2022-10-22T06:18:48;7.70;99.90
29403;DHT22;16382;59.942;30.472;2022-10-22T06:21:15;7.80;99.90
29403;DHT22;16382;59.942;30.472;2022-10-22T06:23:43;7.80;99.90
29403;DHT22;16382;59.942;30.472;2022-10-22T06:26:10;7.80;99.90
29403;DHT22;16382;59.942;30.472;2022-10-22T06:28:37;7.90;99.90
29403;DHT22;16382;59.942;30.472;2022-10-22T06:31:06;7.90;99.90
29403;DHT22;16382;59.942;30.472;2022-10-22T06:33:34;7.90;99.90
29403;DHT22;16382;59.942;30.472;2022-10-22T06:36:08;8.00;99.90
29403;DHT22;16382;59.942;30.472;2022-10-22T06:38:37;8.00;99.90
29403;DHT22;16382;59.942;30.472;2022-10-22T06:41:06;8.10;99.90
29403;DHT22;16382;59.942;30.472;2022-10-22T06:43:34;8.20;99.90
29403;DHT22;16382;59.942;30.472;2022-10-22T06:46:03;8.20;99.90
29403;DHT22;16382;59.942;30.472;2022-10-22T06:48:32;8.30;99.90
29403;DHT22;16382;59.942;30.472;2022-10-22T06:51:01;8.40;99.90
29403;DHT22;16382;59.942;30.472;2022-10-22T06:53:29;8.40;99.90
29403;DHT22;16382;59.942;30.472;2022-10-22T06:55:56;8.40;99.90
29403;DHT22;16382;59.942;30.472;2022-10-22T06:58:23;8.40;99.90
29403;DHT22;16382;59.942;30.472;2022-10-22T07:01:00;8.40;99.90
29403;DHT22;16382;59.942;30.472;2022-10-22T07:03:27;8.40;99.90
29403;DHT22;16382;59.942;30.472;2022-10-22T07:05:58;8.30;99.90
29403;DHT22;16382;59.942;30.472;2022-10-22T07:08:25;8.30;99.90
29403;DHT22;16382;59.942;30.472;2022-10-22T07:10:52;8.40;99.90
29403;DHT22;16382;59.942;30.472;2022-10-22T07:13:19;8.40;99.90
29403;DHT22;16382;59.942;30.472;2022-10-22T07:15:51;8.40;99.90
29403;DHT22;16382;59.942;30.472;2022-10-22T07:18:18;8.50;99.90
29403;DHT22;16382;59.942;30.472;2022-10-22T07:20:46;8.50;99.90
29403;DHT22;16382;59.942;30.472;2022-10-22T07:23:16;8.60;99.90
29403;DHT22;16382;59.942;30.472;2022-10-22T07:25:43;8.60;99.90
29403;DHT22;16382;59.942;30.472;2022-10-22T07:28:10;8.70;99.90
29403;DHT22;16382;59.942;30.472;2022-10-22T07:30:38;8.80;99.90
29403;DHT22;16382;59.942;30.472;2022-10-22T07:33:07;8.90;99.90
29403;DHT22;16382;59.942;30.472;2022-10-22T07:35:38;8.90;99.90
29403;DHT22;16382;59.942;30.472;2022-10-22T07:38:06;9.00;99.90
29403;DHT22;16382;59.942;30.472;2022-10-22T07:40:35;8.90;99.90
29403;DHT22;16382;59.942;30.472;2022-10-22T07:43:03;8.90;99.90
29403;DHT22;16382;59.942;30.472;2022-10-22T07:45:30;8.80;99.90
29403;DHT22;16382;59.942;30.472;2022-10-22T07:47:58;8.70;99.90
29403;DHT22;16382;59.942;30.472;2022-10-22T07:50:26;8.80;99.90
29403;DHT22;16382;59.942;30.472;2022-10-22T07:52:53;8.90;99.90
29403;DHT22;16382;59.942;30.472;2022-10-22T07:55:20;9.00;99.90
29403;DHT22;16382;59.942;30.472;2022-10-22T07:57:49;9.00;99.90
29403;DHT22;16382;59.942;30.472;2022-10-22T08:00:17;9.20;99.90
29403;DHT22;16382;59.942;30.472;2022-10-22T08:02:44;9.70;99.90
29403;DHT22;16382;59.942;30.472;2022-10-22T08:05:12;10.10;99.90
29403;DHT22;16382;59.942;30.472;2022-10-22T08:07:39;10.10;99.90
29403;DHT22;16382;59.942;30.472;2022-10-22T08:10:07;10.10;99.90
29403;DHT22;16382;59.942;30.472;2022-10-22T08:12:35;10.20;99.90
29403;DHT22;16382;59.942;30.472;2022-10-22T08:15:04;10.20;99.90
29403;DHT22;16382;59.942;30.472;2022-10-22T08:17:31;10.20;99.90
29403;DHT22;16382;59.942;30.472;2022-10-22T08:19:59;10.10;99.90
29403;DHT22;16382;59.942;30.472;2022-10-22T08:22:26;10.20;99.90
29403;DHT22;16382;59.942;30.472;2022-10-22T08:24:53;10.30;99.90
29403;DHT22;16382;59.942;30.472;2022-10-22T08:27:20;10.30;99.90
29403;DHT22;16382;59.942;30.472;2022-10-22T08:29:48;10.40;99.90
29403;DHT22;16382;59.942;30.472;2022-10-22T08:32:16;10.50;99.90
29403;DHT22;16382;59.942;30.472;2022-10-22T08:34:44;10.60;99.90
29403;DHT22;16382;59.942;30.472;2022-10-22T08:37:11;10.60;99.90
29403;DHT22;16382;59.942;30.472;2022-10-22T08:39:39;10.60;99.90
29403;DHT22;16382;59.942;30.472;2022-10-22T08:42:32;10.60;99.90
29403;DHT22;16382;59.942;30.472;2022-10-22T08:45:11;10.60;99.90
29403;DHT22;16382;59.942;30.472;2022-10-22T08:48:03;10.60;99.90
29403;DHT22;16382;59.942;30.472;2022-10-22T08:50:37;10.50;99.90
29403;DHT22;16382;59.942;30.472;2022-10-22T08:53:10;10.60;99.90
29403;DHT22;16382;59.942;30.472;2022-10-22T08:55:38;10.50;99.90
29403;DHT22;16382;59.942;30.472;2022-10-22T08:58:13;10.40;99.90
29403;DHT22;16382;59.942;30.472;2022-10-22T09:00:49;10.40;99.90
29403;DHT22;16382;59.942;30.472;2022-10-22T09:03:40;10.30;99.90
29403;DHT22;16382;59.942;30.472;2022-10-22T09:06:10;10.30;99.90
29403;DHT22;16382;59.942;30.472;2022-10-22T09:08:38;10.30;99.90
29403;DHT22;16382;59.942;30.472;2022-10-22T09:11:19;10.30;99.90
29403;DHT22;16382;59.942;30.472;2022-10-22T09:13:49;10.30;99.90
29403;DHT22;16382;59.942;30.472;2022-10-22T09:16:24;10.40;99.90
29403;DHT22;16382;59.942;30.472;2022-10-22T09:19:02;10.40;99.90
29403;DHT22;16382;59.942;30.472;2022-10-22T09:21:37;10.40;99.90
29403;DHT22;16382;59.942;30.472;2022-10-22T09:24:12;10.40;99.90
29403;DHT22;16382;59.942;30.472;2022-10-22T09:26:42;10.50;99.90
29403;DHT22;16382;59.942;30.472;2022-10-22T09:29:17;10.50;99.90
29403;DHT22;16382;59.942;30.472;2022-10-22T09:31:45;10.40;99.90
29403;DHT22;16382;59.942;30.472;2022-10-22T09:34:16;10.30;99.90
29403;DHT22;16382;59.942;30.472;2022-10-22T09:36:46;10.30;99.90
29403;DHT22;16382;59.942;30.472;2022-10-22T09:39:24;10.30;99.90
29403;DHT22;16382;59.942;30.472;2022-10-22T09:41:51;10.30;99.90
29403;DHT22;16382;59.942;30.472;2022-10-22T09:44:19;10.40;99.90
29403;DHT22;16382;59.942;30.472;2022-10-22T09:46:47;10.50;99.90
29403;DHT22;16382;59.942;30.472;2022-10-22T09:49:16;10.60;99.90
29403;DHT22;16382;59.942;30.472;2022-10-22T09:51:49;10.50;99.90
29403;DHT22;16382;59.942;30.472;2022-10-22T09:54:19;10.40;99.90
29403;DHT22;16382;59.942;30.472;2022-10-22T09:56:50;10.40;99.90
29403;DHT22;16382;59.942;30.472;2022-10-22T09:59:25;10.40;99.90
29403;DHT22;16382;59.942;30.472;2022-10-22T10:01:58;10.50;99.90
29403;DHT22;16382;59.942;30.472;2022-10-22T10:04:29;10.50;99.90
29403;DHT22;16382;59.942;30.472;2022-10-22T10:07:00;10.50;99.90
29403;DHT22;16382;59.942;30.472;2022-10-22T10:09:28;10.40;99.90
29403;DHT22;16382;59.942;30.472;2022-10-22T10:12:03;10.50;99.90
29403;DHT22;16382;59.942;30.472;2022-10-22T10:14:38;10.50;99.90
29403;DHT22;16382;59.942;30.472;2022-10-22T10:17:18;10.50;99.90
29403;DHT22;16382;59.942;30.472;2022-10-22T10:19:56;10.60;99.90
29403;DHT22;16382;59.942;30.472;2022-10-22T10:22:39;10.60;99.90
29403;DHT22;16382;59.942;30.472;2022-10-22T10:25:27;10.70;99.90
29403;DHT22;16382;59.942;30.472;2022-10-22T10:28:03;10.70;99.90
29403;DHT22;16382;59.942;30.472;2022-10-22T10:30:37;10.60;99.90
29403;DHT22;16382;59.942;30.472;2022-10-22T10:33:20;10.60;99.90
29403;DHT22;16382;59.942;30.472;2022-10-22T10:35:57;10.50;99.90
29403;DHT22;16382;59.942;30.472;2022-10-22T10:38:49;10.60;99.90
29403;DHT22;16382;59.942;30.472;2022-10-22T10:41:22;10.60;99.90
29403;DHT22;16382;59.942;30.472;2022-10-22T10:44:05;10.50;99.90
29403;DHT22;16382;59.942;30.472;2022-10-22T10:46:43;10.50;99.90
29403;DHT22;16382;59.942;30.472;2022-10-22T10:49:18;10.50;99.90
29403;DHT22;16382;59.942;30.472;2022-10-22T10:51:52;10.40;99.90
29403;DHT22;16382;59.942;30.472;2022-10-22T10:54:32;10.40;99.90
29403;DHT22;16382;59.942;30.472;2022-10-22T10:57:05;10.50;99.90
29403;DHT22;16382;59.942;30.472;2022-10-22T10:59:48;10.40;99.90
29403;DHT22;16382;59.942;30.472;2022-10-22T11:06:18;10.40;99.90
29403;DHT22;16382;59.942;30.472;2022-10-22T11:08:52;10.50;99.90
29403;DHT22;16382;59.942;30.472;2022-10-22T11:11:25;10.50;99.90
29403;DHT22;16382;59.942;30.472;2022-10-22T11:13:59;10.50;99.90
29403;DHT22;16382;59.942;30.472;2022-10-22T11:16:31;10.50;99.90
29403;DHT22;16382;59.942;30.472;2022-10-22T11:19:05;10.50;99.90
29403;DHT22;16382;59.942;30.472;2022-10-22T11:21:36;10.40;99.90
29403;DHT22;16382;59.942;30.472;2022-10-22T11:24:13;10.40;99.90
29403;DHT22;16382;59.942;30.472;2022-10-22T11:26:47;10.40;99.90
29403;DHT22;16382;59.942;30.472;2022-10-22T11:29:23;10.30;99.90
29403;DHT22;16382;59.942;30.472;2022-10-22T11:31:53;10.30;99.90
29403;DHT22;16382;59.942;30.472;2022-10-22T11:34:25;10.30;99.90
29403;DHT22;16382;59.942;30.472;2022-10-22T11:36:54;10.30;99.90
29403;DHT22;16382;59.942;30.472;2022-10-22T11:39:35;10.30;99.90
29403;DHT22;16382;59.942;30.472;2022-10-22T11:42:05;10.30;99.90
29403;DHT22;16382;59.942;30.472;2022-10-22T11:44:50;10.50;99.90
29403;DHT22;16382;59.942;30.472;2022-10-22T11:47:57;10.60;99.90
29403;DHT22;16382;59.942;30.472;2022-10-22T11:50:26;10.70;99.90
29403;DHT22;16382;59.942;30.472;2022-10-22T11:53:03;10.70;99.90
29403;DHT22;16382;59.942;30.472;2022-10-22T11:55:43;10.70;99.90
29403;DHT22;16382;59.942;30.472;2022-10-22T11:58:43;10.70;99.90
29403;DHT22;16382;59.942;30.472;2022-10-22T12:01:20;10.60;99.90
29403;DHT22;16382;59.942;30.472;2022-10-22T12:03:50;10.60;99.90
29403;DHT22;16382;59.942;30.472;2022-10-22T12:06:22;10.70;99.90
29403;DHT22;16382;59.942;30.472;2022-10-22T12:09:08;10.70;99.90
29403;DHT22;16382;59.942;30.472;2022-10-22T12:11:46;10.70;99.90
29403;DHT22;16382;59.942;30.472;2022-10-22T12:14:18;10.80;99.90
29403;DHT22;16382;59.942;30.472;2022-10-22T12:16:50;10.80;99.90
29403;DHT22;16382;59.942;30.472;2022-10-22T12:19:26;10.70;99.90
29403;DHT22;16382;59.942;30.472;2022-10-22T12:21:56;10.70;99.90
29403;DHT22;16382;59.942;30.472;2022-10-22T12:24:28;10.50;99.90
29403;DHT22;16382;59.942;30.472;2022-10-22T12:26:57;10.50;99.90
29403;DHT22;16382;59.942;30.472;2022-10-22T12:29:25;10.60;99.90
29403;DHT22;16382;59.942;30.472;2022-10-22T12:31:53;10.50;99.90
29403;DHT22;16382;59.942;30.472;2022-10-22T12:34:23;10.40;99.90
29403;DHT22;16382;59.942;30.472;2022-10-22T12:36:52;10.30;99.90
29403;DHT22;16382;59.942;30.472;2022-10-22T12:39:20;10.20;99.90
29403;DHT22;16382;59.942;30.472;2022-10-22T12:41:49;10.00;99.90
29403;DHT22;16382;59.942;30.472;2022-10-22T12:44:19;9.90;99.90
29403;DHT22;16382;59.942;30.472;2022-10-22T12:46:48;9.80;99.90
29403;DHT22;16382;59.942;30.472;2022-10-22T12:49:20;9.70;99.90
29403;DHT22;16382;59.942;30.472;2022-10-22T12:51:51;9.60;99.90
29403;DHT22;16382;59.942;30.472;2022-10-22T12:54:24;9.60;99.90
29403;DHT22;16382;59.942;30.472;2022-10-22T12:56:55;9.60;99.90
29403;DHT22;16382;59.942;30.472;2022-10-22T12:59:26;9.50;99.90
29403;DHT22;16382;59.942;30.472;2022-10-22T13:01:55;9.40;99.90
29403;DHT22;16382;59.942;30.472;2022-10-22T13:04:31;9.30;99.90
29403;DHT22;16382;59.942;30.472;2022-10-22T13:07:19;9.30;99.90
29403;DHT22;16382;59.942;30.472;2022-10-22T13:09:56;9.20;99.90
29403;DHT22;16382;59.942;30.472;2022-10-22T13:12:25;9.20;99.90
29403;DHT22;16382;59.942;30.472;2022-10-22T13:14:53;9.20;99.90
29403;DHT22;16382;59.942;30.472;2022-10-22T13:17:38;9.20;99.90
29403;DHT22;16382;59.942;30.472;2022-10-22T13:20:16;9.20;99.90
29403;DHT22;16382;59.942;30.472;2022-10-22T13:22:52;9.30;99.90
29403;DHT22;16382;59.942;30.472;2022-10-22T13:25:24;9.30;99.90
29403;DHT22;16382;59.942;30.472;2022-10-22T13:27:55;9.30;99.90
29403;DHT22;16382;59.942;30.472;2022-10-22T13:30:26;9.20;99.90
29403;DHT22;16382;59.942;30.472;2022-10-22T13:32:56;9.20;99.90
29403;DHT22;16382;59.942;30.472;2022-10-22T13:35:26;9.10;99.90
29403;DHT22;16382;59.942;30.472;2022-10-22T13:37:54;9.10;99.90
29403;DHT22;16382;59.942;30.472;2022-10-22T13:40:21;9.10;99.90
29403;DHT22;16382;59.942;30.472;2022-10-22T13:42:49;9.10;99.90
29403;DHT22;16382;59.942;30.472;2022-10-22T13:45:17;9.00;99.90
29403;DHT22;16382;59.942;30.472;2022-10-22T13:47:49;9.00;99.90
29403;DHT22;16382;59.942;30.472;2022-10-22T13:50:19;9.00;99.90
29403;DHT22;16382;59.942;30.472;2022-10-22T13:52:49;9.00;99.90
29403;DHT22;16382;59.942;30.472;2022-10-22T13:55:20;9.00;99.90
29403;DHT22;16382;59.942;30.472;2022-10-22T13:57:51;9.00;99.90
29403;DHT22;16382;59.942;30.472;2022-10-22T14:00:21;8.90;99.90
29403;DHT22;16382;59.942;30.472;2022-10-22T14:02:56;8.90;99.90
29403;DHT22;16382;59.942;30.472;2022-10-22T14:05:24;8.90;99.90
29403;DHT22;16382;59.942;30.472;2022-10-22T14:07:51;9.00;99.90
29403;DHT22;16382;59.942;30.472;2022-10-22T14:10:23;9.00;99.90
29403;DHT22;16382;59.942;30.472;2022-10-22T14:12:51;9.00;99.90
29403;DHT22;16382;59.942;30.472;2022-10-22T14:15:20;8.90;99.90
29403;DHT22;16382;59.942;30.472;2022-10-22T14:17:51;8.90;99.90
29403;DHT22;16382;59.942;30.472;2022-10-22T14:20:21;8.90;99.90
29403;DHT22;16382;59.942;30.472;2022-10-22T14:22:50;8.90;99.90
29403;DHT22;16382;59.942;30.472;2022-10-22T14:25:20;8.90;99.90
29403;DHT22;16382;59.942;30.472;2022-10-22T14:27:47;8.80;99.90
29403;DHT22;16382;59.942;30.472;2022-10-22T14:30:16;8.80;99.90
29403;DHT22;16382;59.942;30.472;2022-10-22T14:32:47;8.80;99.90
29403;DHT22;16382;59.942;30.472;2022-10-22T14:35:19;8.80;99.90
29403;DHT22;16382;59.942;30.472;2022-10-22T14:37:47;8.70;99.90
29403;DHT22;16382;59.942;30.472;2022-10-22T14:40:16;8.70;99.90
29403;DHT22;16382;59.942;30.472;2022-10-22T14:42:47;8.60;99.90
29403;DHT22;16382;59.942;30.472;2022-10-22T14:45:17;8.60;99.90
29403;DHT22;16382;59.942;30.472;2022-10-22T14:47:44;8.60;99.90
29403;DHT22;16382;59.942;30.472;2022-10-22T14:50:12;8.50;99.90
29403;DHT22;16382;59.942;30.472;2022-10-22T14:52:41;8.50;99.90
29403;DHT22;16382;59.942;30.472;2022-10-22T14:55:09;8.50;99.90
29403;DHT22;16382;59.942;30.472;2022-10-22T14:57:38;8.50;99.90
29403;DHT22;16382;59.942;30.472;2022-10-22T15:00:14;8.50;99.90
29403;DHT22;16382;59.942;30.472;2022-10-22T15:02:55;8.50;99.90
29403;DHT22;16382;59.942;30.472;2022-10-22T15:05:51;8.50;99.90
29403;DHT22;16382;59.942;30.472;2022-10-22T15:08:40;8.40;99.90
29403;DHT22;16382;59.942;30.472;2022-10-22T15:11:12;8.40;99.90
29403;DHT22;16382;59.942;30.472;2022-10-22T15:13:42;8.40;99.90
29403;DHT22;16382;59.942;30.472;2022-10-22T15:16:10;8.40;99.90
29403;DHT22;16382;59.942;30.472;2022-10-22T15:18:39;8.40;99.90
29403;DHT22;16382;59.942;30.472;2022-10-22T15:21:10;8.40;99.90
29403;DHT22;16382;59.942;30.472;2022-10-22T15:23:43;8.40;99.90
29403;DHT22;16382;59.942;30.472;2022-10-22T15:26:14;8.40;99.90
29403;DHT22;16382;59.942;30.472;2022-10-22T15:28:51;8.40;99.90
29403;DHT22;16382;59.942;30.472;2022-10-22T15:31:41;8.40;99.90
29403;DHT22;16382;59.942;30.472;2022-10-22T15:34:09;8.40;99.90
29403;DHT22;16382;59.942;30.472;2022-10-22T15:36:36;8.50;99.90
29403;DHT22;16382;59.942;30.472;2022-10-22T15:39:11;8.50;99.90
29403;DHT22;16382;59.942;30.472;2022-10-22T15:41:38;8.50;99.90
29403;DHT22;16382;59.942;30.472;2022-10-22T15:44:05;8.50;99.90
29403;DHT22;16382;59.942;30.472;2022-10-22T15:46:34;8.50;99.90
29403;DHT22;16382;59.942;30.472;2022-10-22T15:49:01;8.50;99.90
29403;DHT22;16382;59.942;30.472;2022-10-22T15:51:29;8.50;99.90
29403;DHT22;16382;59.942;30.472;2022-10-22T15:53:57;8.50;99.90
29403;DHT22;16382;59.942;30.472;2022-10-22T15:56:27;8.40;99.90